リヨン の空港の天気 - METARとTAF

サン=テグジュペリ国際空港(リヨン) ( LFLL / LYS ) - フランス リヨン
飛行場実況気象(Metar)
観測時間10/18 10:00 CEST (10/18 08:00 UTC)
風向・風速南 7m/s
視程10km以上
天気現象
なし
気温17℃
湿度77%
気圧1014hPa
METARLFLL 180800Z 18014KT CAVOK 17/13 Q1014 NOSIG
過去の天気等 Google飛行場航空写真 Wunderground天気予報

過去48時間のMETAR

飛行場予報(TAF)
発表時間: 10/18 07:00 CEST (10/18 05:00 UTC)
予報対象時間: 18日8時 CEST ~ 19日14時 CEST
風向・風速南 6m/s
視程10km以上
なし
18日8時 CEST ~ 18日17時 CEST に一時的に
風向・風速南南西 8m/s 瞬間風速 13m/s
18日8時 CEST ~ 19日2時 CEST に一時的に
視程4000m
天気現象しゅう雨
全天の8割程度の塔状積雲 雲底高度 1220m
全天を覆う雲 雲底高度 1830m
19日4時 CEST ~ 19日14時 CEST に一時的に
視程3000m
天気現象しゅう雨
全天の4割程度の雲 雲底高度 460m
全天の8割程度の塔状積雲 雲底高度 1070m
19日5時 CEST ~ 19日12時 CEST に 確率 30% で一時的に
風向・風速南南西 10m/s 瞬間風速 18m/s
視程1500m
天気現象雷雨
全天の8割程度の積乱雲 雲底高度 760m
TAF LFLL 180500Z 1806/1912 18012KT CAVOK
TEMPO 1806/1815 20015G25KT
TEMPO 1806/1824 4000 SHRA BKN040TCU OVC060
TEMPO 1902/1912 3000 SHRA SCT015 BKN035TCU
PROB30 TEMPO 1903/1910 20020G35KT 1500 TSRA BKN025CB